createdAt,value
2022-12-09T00:02:41.857Z,-11.31
2022-12-09T00:05:45.203Z,-11.32
2022-12-09T00:08:49.081Z,-11.32
2022-12-09T00:11:53.412Z,-11.36
2022-12-09T00:14:56.566Z,-11.33
2022-12-09T00:17:59.647Z,-11.33
2022-12-09T00:21:33.074Z,-11.29
2022-12-09T00:24:36.202Z,-11.29
2022-12-09T00:27:39.551Z,-11.27
2022-12-09T00:30:42.856Z,-11.25
2022-12-09T00:33:46.008Z,-11.24
2022-12-09T00:36:49.119Z,-11.20
2022-12-09T00:39:53.803Z,-11.16
2022-12-09T00:42:57.021Z,-11.15
2022-12-09T00:46:00.628Z,-11.13
2022-12-09T00:49:05.249Z,-11.09
2022-12-09T00:52:08.584Z,-11.04
2022-12-09T00:55:11.899Z,-10.98
2022-12-09T00:58:15.145Z,-10.92
2022-12-09T01:01:18.458Z,-10.88
2022-12-09T01:04:21.953Z,-10.85
2022-12-09T01:07:25.231Z,-10.79
2022-12-09T01:10:28.488Z,-10.73
2022-12-09T01:13:31.629Z,-10.63
2022-12-09T01:16:35.838Z,-10.55
2022-12-09T01:19:41.364Z,-10.43
2022-12-09T01:22:44.672Z,-10.36
2022-12-09T01:25:48.085Z,-10.29
2022-12-09T01:28:53.624Z,-10.19
2022-12-09T01:31:57.398Z,-10.12
2022-12-09T01:35:03.989Z,-10.06
2022-12-09T01:38:07.055Z,-9.99
2022-12-09T01:41:10.595Z,-9.93
2022-12-09T01:44:25.587Z,-9.84
2022-12-09T01:47:29.956Z,-9.80
2022-12-09T01:50:36.862Z,-9.73
2022-12-09T01:53:44.699Z,-9.70
2022-12-09T01:56:48.978Z,-9.66
2022-12-09T01:59:53.454Z,-9.60
2022-12-09T02:02:57.684Z,-9.53
2022-12-09T02:06:01.275Z,-9.46
2022-12-09T02:09:05.251Z,-9.41
2022-12-09T02:12:27.946Z,-9.25
2022-12-09T02:15:57.997Z,-9.08
2022-12-09T02:19:28.955Z,-8.96
2022-12-09T02:22:39.119Z,-8.89
2022-12-09T02:25:48.777Z,-8.81
2022-12-09T02:29:41.336Z,-8.70
2022-12-09T02:33:02.989Z,-8.63
2022-12-09T02:36:29.777Z,-8.57
2022-12-09T02:39:47.774Z,-8.46
2022-12-09T02:42:52.038Z,-8.38
2022-12-09T02:45:56.722Z,-8.29
2022-12-09T02:49:01.188Z,-8.20
2022-12-09T02:52:06.375Z,-8.16
2022-12-09T02:55:13.685Z,-8.12
2022-12-09T02:58:17.298Z,-7.93
2022-12-09T03:01:52.260Z,-7.52
2022-12-09T03:05:20.037Z,-7.42
2022-12-09T03:08:48.499Z,-7.35
2022-12-09T03:11:53.350Z,-7.40
2022-12-09T03:14:58.485Z,-7.51
2022-12-09T03:18:07.886Z,-7.51
2022-12-09T03:21:12.727Z,-7.54
2022-12-09T03:24:21.593Z,-7.55
2022-12-09T03:27:36.616Z,-7.51
2022-12-09T03:30:45.593Z,-7.47
2022-12-09T03:33:52.958Z,-7.40
2022-12-09T03:36:58.601Z,-7.31
2022-12-09T03:40:02.641Z,-7.23
2022-12-09T03:43:16.897Z,-7.22
2022-12-09T03:46:22.159Z,-7.15
2022-12-09T03:49:25.424Z,-7.12
2022-12-09T03:52:36.139Z,-7.06
2022-12-09T03:56:02.382Z,-6.92
2022-12-09T03:59:11.245Z,-6.65
2022-12-09T04:02:14.957Z,-6.56
2022-12-09T04:05:18.432Z,-6.57
2022-12-09T04:08:21.608Z,-6.58
2022-12-09T04:11:25.073Z,-6.58
2022-12-09T04:14:28.283Z,-6.51
2022-12-09T04:17:31.484Z,-6.45
2022-12-09T04:20:34.775Z,-6.46
2022-12-09T04:23:43.014Z,-6.54
2022-12-09T04:26:47.448Z,-6.60
2022-12-09T04:29:50.710Z,-6.66
2022-12-09T04:32:53.941Z,-6.65
2022-12-09T04:36:07.887Z,-6.57
2022-12-09T04:39:11.302Z,-6.55
2022-12-09T04:42:14.489Z,-6.48
2022-12-09T04:45:17.941Z,-6.46
2022-12-09T04:48:21.079Z,-6.44
2022-12-09T04:51:24.673Z,-6.42
2022-12-09T04:54:28.274Z,-6.43
2022-12-09T04:57:31.553Z,-6.37
2022-12-09T05:00:34.995Z,-6.31
2022-12-09T05:03:38.670Z,-6.27
2022-12-09T05:06:42.403Z,-6.24
2022-12-09T05:09:45.831Z,-6.23
2022-12-09T05:12:49.209Z,-6.23
2022-12-09T05:15:55.287Z,-6.22
2022-12-09T05:19:01.551Z,-6.18
2022-12-09T05:22:05.292Z,-6.11
2022-12-09T05:25:09.088Z,-5.98
2022-12-09T05:28:12.847Z,-5.92
2022-12-09T05:31:18.950Z,-5.90
2022-12-09T05:34:22.644Z,-5.88
2022-12-09T05:37:25.812Z,-5.91
2022-12-09T05:40:29.229Z,-5.89
2022-12-09T05:43:33.376Z,-5.94
2022-12-09T05:46:36.855Z,-5.94
2022-12-09T05:49:40.156Z,-6.00
2022-12-09T05:52:43.869Z,-6.00
2022-12-09T05:55:47.267Z,-5.96
2022-12-09T05:58:51.540Z,-5.90
2022-12-09T06:01:55.284Z,-5.89
2022-12-09T06:04:58.907Z,-5.86
2022-12-09T06:08:06.636Z,-5.83
2022-12-09T06:11:24.061Z,-5.80
2022-12-09T06:14:27.494Z,-5.85
2022-12-09T06:17:30.860Z,-5.86
2022-12-09T06:20:34.351Z,-5.92
2022-12-09T06:23:39.607Z,-5.95
2022-12-09T06:26:42.969Z,-5.93
2022-12-09T06:29:46.194Z,-5.86
2022-12-09T06:32:49.805Z,-5.86
2022-12-09T06:35:53.516Z,-5.84
2022-12-09T06:38:57.729Z,-5.70
2022-12-09T06:42:02.446Z,-5.61
2022-12-09T06:45:06.730Z,-5.68
2022-12-09T06:48:10.115Z,-5.65
2022-12-09T06:51:13.795Z,-4.26
2022-12-09T06:54:17.266Z,-3.23
2022-12-09T06:57:20.747Z,-3.52
2022-12-09T07:00:24.032Z,-4.18
2022-12-09T07:03:28.096Z,-4.64
2022-12-09T07:06:37.241Z,-4.99
2022-12-09T07:09:40.704Z,-5.22
2022-12-09T07:12:44.131Z,-5.44
2022-12-09T07:15:47.334Z,-5.71
2022-12-09T07:18:50.687Z,-5.97
2022-12-09T07:21:54.503Z,-6.20
2022-12-09T07:24:57.953Z,-6.44
2022-12-09T07:28:01.352Z,-6.61
2022-12-09T07:31:05.188Z,-6.76
2022-12-09T07:34:08.677Z,-6.91
2022-12-09T07:37:12.644Z,-7.02
2022-12-09T07:40:16.163Z,-7.12
2022-12-09T07:43:19.301Z,-7.23
2022-12-09T07:46:24.643Z,-7.27
2022-12-09T07:49:28.448Z,-7.29
2022-12-09T07:52:31.973Z,-7.24
2022-12-09T07:55:35.405Z,-7.24
2022-12-09T07:58:39.720Z,-7.32
2022-12-09T08:01:43.854Z,-7.44
2022-12-09T08:04:47.632Z,-7.55
2022-12-09T08:07:51.355Z,-7.66
2022-12-09T08:10:55.559Z,-7.74
2022-12-09T08:14:05.694Z,-7.83
2022-12-09T08:17:12.732Z,-7.90
2022-12-09T08:20:16.722Z,-7.95
2022-12-09T08:23:20.186Z,-8.01
2022-12-09T08:26:25.540Z,-8.07
2022-12-09T08:29:29.324Z,-8.12
2022-12-09T08:32:32.766Z,-8.14
2022-12-09T08:35:38.656Z,-8.13
2022-12-09T08:38:42.690Z,-8.13
2022-12-09T08:41:46.149Z,-8.09
2022-12-09T08:44:54.727Z,-8.08
2022-12-09T08:48:02.054Z,-8.05
2022-12-09T08:51:06.518Z,-8.05
2022-12-09T08:54:09.920Z,-8.08
2022-12-09T08:57:13.552Z,-8.14
2022-12-09T09:00:18.162Z,-8.18
2022-12-09T09:03:21.829Z,-8.20
2022-12-09T09:06:25.410Z,-8.17
2022-12-09T09:09:29.179Z,-8.13
2022-12-09T09:12:36.226Z,-8.07
2022-12-09T09:15:43.880Z,-8.04
2022-12-09T09:18:48.256Z,-8.02
2022-12-09T09:21:51.742Z,-7.98
2022-12-09T09:24:55.544Z,-7.97
2022-12-09T09:27:59.075Z,-7.96
2022-12-09T09:31:05.283Z,-7.98
2022-12-09T09:34:09.238Z,-7.98
2022-12-09T09:37:12.833Z,-7.98
2022-12-09T09:40:16.795Z,-8.00
2022-12-09T09:43:24.553Z,-8.04
2022-12-09T09:46:44.091Z,-8.05
2022-12-09T09:49:55.583Z,-8.06
2022-12-09T09:52:59.277Z,-8.05
2022-12-09T09:56:15.157Z,-8.00
2022-12-09T09:59:42.729Z,-7.97
2022-12-09T10:03:10.724Z,-7.95
2022-12-09T10:06:27.215Z,-7.94
2022-12-09T10:10:08.751Z,-7.94
2022-12-09T10:13:19.539Z,-7.95
2022-12-09T10:16:23.038Z,-7.96
2022-12-09T10:19:42.934Z,-7.95
2022-12-09T10:22:53.210Z,-7.94
2022-12-09T10:26:00.413Z,-7.92
2022-12-09T10:29:21.312Z,-7.91
2022-12-09T10:32:28.773Z,-7.88
2022-12-09T10:35:33.694Z,-7.91
2022-12-09T10:38:41.858Z,-7.90
2022-12-09T10:42:16.815Z,-7.92
2022-12-09T10:45:20.275Z,-7.92
2022-12-09T10:48:36.327Z,-7.96
2022-12-09T10:51:47.521Z,-8.03
2022-12-09T10:54:51.068Z,-8.07
2022-12-09T10:58:12.462Z,-8.09
2022-12-09T11:01:17.368Z,-8.13
2022-12-09T11:04:31.682Z,-8.16
2022-12-09T11:07:35.513Z,-8.24
2022-12-09T11:10:39.179Z,-8.28
2022-12-09T11:13:44.209Z,-8.30
2022-12-09T11:16:47.707Z,-8.36
2022-12-09T11:20:09.151Z,-8.45
2022-12-09T11:23:13.316Z,-8.55
2022-12-09T11:26:38.621Z,-8.63
2022-12-09T11:29:42.364Z,-8.68
2022-12-09T11:33:01.129Z,-8.72
2022-12-09T11:39:20.591Z,-8.86
2022-12-09T11:42:25.401Z,-8.83
2022-12-09T11:45:37.094Z,-8.82
2022-12-09T11:48:49.440Z,-8.79
2022-12-09T11:52:20.086Z,-8.77
2022-12-09T11:55:25.401Z,-8.79
2022-12-09T11:59:14.877Z,-8.81
2022-12-09T12:02:27.306Z,-8.82
2022-12-09T12:05:34.731Z,-8.85
2022-12-09T12:08:52.325Z,-8.88
2022-12-09T12:12:08.268Z,-8.92
2022-12-09T12:15:17.155Z,-8.93
2022-12-09T12:18:22.409Z,-9.01
2022-12-09T12:22:04.384Z,-9.00
2022-12-09T12:25:27.343Z,-9.05
2022-12-09T12:29:07.758Z,-9.05
2022-12-09T12:32:31.244Z,-9.04
2022-12-09T12:36:04.727Z,-9.04
2022-12-09T12:39:27.944Z,-9.01
2022-12-09T12:43:07.495Z,-9.04
2022-12-09T12:46:36.245Z,-9.07
2022-12-09T12:50:12.977Z,-9.07
2022-12-09T12:53:30.759Z,-9.02
2022-12-09T12:56:37.036Z,-8.98
2022-12-09T13:00:03.443Z,-8.96
2022-12-09T13:03:25.708Z,-8.92
2022-12-09T13:07:10.527Z,-8.97
2022-12-09T13:10:25.616Z,-8.96
2022-12-09T13:13:45.432Z,-8.95
2022-12-09T13:16:49.409Z,-8.94
2022-12-09T13:19:56.800Z,-8.91
2022-12-09T13:23:11.928Z,-8.92
2022-12-09T13:26:33.518Z,-8.96
2022-12-09T13:29:50.339Z,-9.00
2022-12-09T13:33:11.356Z,-9.01
2022-12-09T13:36:39.307Z,-9.04
2022-12-09T13:39:42.827Z,-9.07
2022-12-09T13:42:56.969Z,-9.11
2022-12-09T13:46:02.270Z,-9.11
2022-12-09T13:49:26.111Z,-9.07
2022-12-09T13:52:49.040Z,-9.08
2022-12-09T13:56:00.168Z,-9.11
2022-12-09T13:59:39.946Z,-9.13
2022-12-09T14:02:53.967Z,-9.17
2022-12-09T14:05:59.800Z,-9.17
2022-12-09T14:09:07.829Z,-9.14
2022-12-09T14:12:31.405Z,-9.16
2022-12-09T14:15:36.958Z,-9.24
2022-12-09T14:18:40.383Z,-9.20
2022-12-09T14:21:43.451Z,-9.20
2022-12-09T14:24:50.027Z,-9.22
2022-12-09T14:28:11.716Z,-9.19
2022-12-09T14:31:52.201Z,-9.19
2022-12-09T14:35:10.492Z,-9.24
2022-12-09T14:38:22.466Z,-9.25
2022-12-09T14:41:50.067Z,-9.27
2022-12-09T14:45:14.176Z,-9.27
2022-12-09T14:48:29.168Z,-9.31
2022-12-09T14:51:59.698Z,-9.37
2022-12-09T14:55:09.497Z,-9.40
2022-12-09T14:58:21.069Z,-9.46
2022-12-09T15:01:24.454Z,-9.46
2022-12-09T15:04:36.365Z,-9.48
2022-12-09T15:07:45.435Z,-9.48
2022-12-09T15:10:48.577Z,-9.52
2022-12-09T15:13:54.660Z,-9.52
2022-12-09T15:16:58.970Z,-9.47
2022-12-09T15:20:03.091Z,-9.50
2022-12-09T15:23:35.230Z,-9.52
2022-12-09T15:26:38.341Z,-9.57
2022-12-09T15:29:41.388Z,-9.60
2022-12-09T15:32:45.878Z,-9.53
2022-12-09T15:36:17.035Z,-9.59
2022-12-09T15:39:37.670Z,-9.56
2022-12-09T15:42:45.094Z,-9.59
2022-12-09T15:45:48.394Z,-9.55
2022-12-09T15:48:56.611Z,-9.52
2022-12-09T15:52:03.711Z,-9.55
2022-12-09T15:55:12.149Z,-9.54
2022-12-09T15:58:17.843Z,-9.55
2022-12-09T16:01:30.296Z,-9.53
2022-12-09T16:04:42.141Z,-9.55
2022-12-09T16:08:00.613Z,-9.55
2022-12-09T16:11:03.953Z,-9.56
2022-12-09T16:14:07.870Z,-9.55
2022-12-09T16:17:29.272Z,-9.55
2022-12-09T16:20:42.564Z,-9.58
2022-12-09T16:23:51.437Z,-9.57
2022-12-09T16:26:55.914Z,-9.58
2022-12-09T16:30:02.532Z,-9.55
2022-12-09T16:33:21.422Z,-9.59
2022-12-09T16:36:32.031Z,-9.65
2022-12-09T16:39:36.231Z,-9.65
2022-12-09T16:42:40.980Z,-9.64
2022-12-09T16:45:51.229Z,-9.59
2022-12-09T16:49:00.448Z,-9.67
2022-12-09T16:52:07.874Z,-9.70
2022-12-09T16:55:23.926Z,-9.61
2022-12-09T16:58:28.634Z,-9.64
2022-12-09T17:01:36.065Z,-9.66
2022-12-09T17:04:40.323Z,-9.71
2022-12-09T17:07:43.555Z,-9.75
2022-12-09T17:10:46.855Z,-9.79
2022-12-09T17:13:51.097Z,-9.82
2022-12-09T17:16:54.359Z,-9.82
2022-12-09T17:19:59.253Z,-9.79
2022-12-09T17:23:02.325Z,-9.76
2022-12-09T17:26:08.120Z,-9.79
2022-12-09T17:29:11.317Z,-9.81
2022-12-09T17:32:14.646Z,-9.86
2022-12-09T17:35:18.277Z,-9.86
2022-12-09T17:38:22.146Z,-9.87
2022-12-09T17:41:25.301Z,-9.86
2022-12-09T17:44:29.267Z,-9.85
2022-12-09T17:47:32.381Z,-9.88
2022-12-09T17:50:38.809Z,-9.92
2022-12-09T17:53:44.340Z,-9.94
2022-12-09T17:56:47.554Z,-9.98
2022-12-09T17:59:50.629Z,-9.95
2022-12-09T18:02:53.962Z,-9.92
2022-12-09T18:06:01.051Z,-9.95
2022-12-09T18:09:06.795Z,-9.95
2022-12-09T18:12:10.087Z,-9.99
2022-12-09T18:15:13.118Z,-9.95
2022-12-09T18:18:17.291Z,-9.94
2022-12-09T18:21:21.646Z,-9.94
2022-12-09T18:24:28.321Z,-9.96
2022-12-09T18:27:31.463Z,-9.94
2022-12-09T18:30:35.204Z,-9.92
2022-12-09T18:33:39.629Z,-9.88
2022-12-09T18:36:42.651Z,-9.79
2022-12-09T18:39:45.796Z,-9.70
2022-12-09T18:42:49.621Z,-9.58
2022-12-09T18:45:52.852Z,-9.48
2022-12-09T18:49:04.054Z,-9.37
2022-12-09T18:52:07.095Z,-9.31
2022-12-09T18:55:10.779Z,-9.25
2022-12-09T18:58:14.049Z,-9.24
2022-12-09T19:01:28.916Z,-9.27
2022-12-09T19:04:32.331Z,-9.29
2022-12-09T19:07:35.477Z,-9.29
2022-12-09T19:10:38.611Z,-9.26
2022-12-09T19:13:41.805Z,-9.21
2022-12-09T19:16:45.399Z,-9.16
2022-12-09T19:19:49.847Z,-9.08
2022-12-09T19:22:53.100Z,-9.01
2022-12-09T19:25:56.090Z,-8.95
2022-12-09T19:29:01.848Z,-8.91
2022-12-09T19:32:13.910Z,-8.85
2022-12-09T19:35:26.975Z,-8.86
2022-12-09T19:38:30.013Z,-8.84
2022-12-09T19:41:33.334Z,-8.83
2022-12-09T19:45:00.406Z,-8.82
2022-12-09T19:48:00.070Z,-8.86
2022-12-09T19:51:05.413Z,-8.85
2022-12-09T19:54:08.674Z,-8.86
2022-12-09T19:57:11.803Z,-8.84
2022-12-09T20:00:15.353Z,-8.81
2022-12-09T20:03:18.410Z,-8.79
2022-12-09T20:06:22.389Z,-8.75
2022-12-09T20:09:25.634Z,-8.75
2022-12-09T20:12:28.718Z,-8.71
2022-12-09T20:15:31.734Z,-8.67
2022-12-09T20:18:35.734Z,-8.75
2022-12-09T20:21:40.243Z,-8.78
2022-12-09T20:24:43.912Z,-8.80
2022-12-09T20:27:46.963Z,-8.84
2022-12-09T20:30:51.202Z,-8.87
2022-12-09T20:34:03.139Z,-8.96
2022-12-09T20:37:06.520Z,-9.00
2022-12-09T20:40:10.556Z,-9.03
2022-12-09T20:43:13.730Z,-9.07
2022-12-09T20:46:29.992Z,-9.13
2022-12-09T20:49:33.082Z,-9.21
2022-12-09T20:52:36.167Z,-9.22
2022-12-09T20:55:39.220Z,-9.19
2022-12-09T20:58:44.063Z,-9.23
2022-12-09T21:01:47.791Z,-9.25
2022-12-09T21:04:51.805Z,-9.22
2022-12-09T21:07:54.894Z,-9.25
2022-12-09T21:11:05.762Z,-9.20
2022-12-09T21:14:09.098Z,-9.19
2022-12-09T21:17:12.302Z,-9.13
2022-12-09T21:20:15.452Z,-9.07
2022-12-09T21:23:33.668Z,-9.13
2022-12-09T21:26:37.731Z,-9.14
2022-12-09T21:29:41.367Z,-9.19
2022-12-09T21:32:44.613Z,-9.21
2022-12-09T21:35:48.442Z,-9.22
2022-12-09T21:38:51.907Z,-9.27
2022-12-09T21:41:55.859Z,-9.32
2022-12-09T21:44:58.992Z,-9.38
2022-12-09T21:48:02.232Z,-9.42
2022-12-09T21:51:05.942Z,-9.44
2022-12-09T21:54:09.550Z,-9.42
2022-12-09T21:57:12.601Z,-9.42
2022-12-09T22:00:16.059Z,-9.45
2022-12-09T22:03:19.204Z,-9.42
2022-12-09T22:06:23.243Z,-9.40
2022-12-09T22:09:26.386Z,-9.38
2022-12-09T22:12:29.445Z,-9.41
2022-12-09T22:15:33.067Z,-9.43
2022-12-09T22:18:36.927Z,-9.42
2022-12-09T22:21:40.390Z,-9.44
2022-12-09T22:24:43.419Z,-9.42
2022-12-09T22:27:46.797Z,-9.43
2022-12-09T22:30:50.000Z,-9.46
2022-12-09T22:33:56.583Z,-9.44
2022-12-09T22:37:10.670Z,-9.49
2022-12-09T22:40:23.687Z,-9.46
2022-12-09T22:43:26.877Z,-9.50
2022-12-09T22:46:32.560Z,-9.53
2022-12-09T22:49:36.650Z,-9.55
2022-12-09T22:52:40.023Z,-9.55
2022-12-09T22:55:48.266Z,-9.58
2022-12-09T22:58:51.954Z,-9.58
2022-12-09T23:01:56.744Z,-9.57
2022-12-09T23:04:59.791Z,-9.59
2022-12-09T23:08:02.870Z,-9.59
2022-12-09T23:11:09.603Z,-9.62
2022-12-09T23:14:14.064Z,-9.63
2022-12-09T23:17:17.136Z,-9.65
2022-12-09T23:20:20.235Z,-9.66
2022-12-09T23:23:23.354Z,-9.65
2022-12-09T23:26:28.292Z,-9.68
2022-12-09T23:29:31.448Z,-9.72
2022-12-09T23:32:34.502Z,-9.69
2022-12-09T23:35:39.366Z,-9.70
2022-12-09T23:38:43.602Z,-9.66
2022-12-09T23:41:47.158Z,-9.60
2022-12-09T23:44:50.280Z,-9.54
2022-12-09T23:47:53.416Z,-9.56
2022-12-09T23:50:56.906Z,-9.55
2022-12-09T23:54:04.240Z,-9.57
2022-12-09T23:57:07.367Z,-9.56
